Terminal Aerodrome Forecast
Issued by NWS Portland, OR

Home | Current Version | Previous Version | Text Only | Print | Product List | Glossary On
Versions: 1 2 3 4 5 6 7 8 9 10 11 12 13 14 15 16 17 18 19 20 21 22 23 24 25 26 27 28 29 30
000
FTUS46 KPQR 062340
TAFSLE
TAF
KSLE 062340Z 0700/0724 35010KT P6SM VCSH BKN060
     FM070400 02006KT P6SM SCT060
     FM071400 VRB03KT P6SM FEW025 SCT250
     FM071700 01005KT P6SM FEW250
     FM072200 34012KT P6SM SCT250=

USA.gov is the U.S. government's official web portal to all federal, state and local government web resources and services.